sensor_id;sensor_type;location;lat;lon;timestamp;temperature;humidity
6377;DHT22;3221;48.858;10.128;2023-04-24T00:01:09;10.40;99.90
6377;DHT22;3221;48.858;10.128;2023-04-24T00:03:36;10.50;99.90
6377;DHT22;3221;48.858;10.128;2023-04-24T00:06:06;10.30;99.90
6377;DHT22;3221;48.858;10.128;2023-04-24T00:08:35;10.30;99.90
6377;DHT22;3221;48.858;10.128;2023-04-24T00:11:02;10.30;99.90
6377;DHT22;3221;48.858;10.128;2023-04-24T00:13:29;10.30;99.90
6377;DHT22;3221;48.858;10.128;2023-04-24T00:15:56;10.20;99.90
6377;DHT22;3221;48.858;10.128;2023-04-24T00:18:23;10.40;99.90
6377;DHT22;3221;48.858;10.128;2023-04-24T00:20:50;10.40;99.90
6377;DHT22;3221;48.858;10.128;2023-04-24T00:23:17;10.30;99.90
6377;DHT22;3221;48.858;10.128;2023-04-24T00:25:44;10.30;99.90
6377;DHT22;3221;48.858;10.128;2023-04-24T00:28:11;10.30;99.90
6377;DHT22;3221;48.858;10.128;2023-04-24T00:30:38;10.30;99.90
6377;DHT22;3221;48.858;10.128;2023-04-24T00:33:05;10.10;99.90
6377;DHT22;3221;48.858;10.128;2023-04-24T00:35:32;10.20;99.90
6377;DHT22;3221;48.858;10.128;2023-04-24T00:37:58;10.20;99.90
6377;DHT22;3221;48.858;10.128;2023-04-24T00:40:27;10.20;99.90
6377;DHT22;3221;48.858;10.128;2023-04-24T00:42:53;10.20;99.90
6377;DHT22;3221;48.858;10.128;2023-04-24T00:45:20;10.30;99.90
6377;DHT22;3221;48.858;10.128;2023-04-24T00:47:48;10.20;99.90
6377;DHT22;3221;48.858;10.128;2023-04-24T00:50:16;10.20;99.90
6377;DHT22;3221;48.858;10.128;2023-04-24T00:52:43;10.00;99.90
6377;DHT22;3221;48.858;10.128;2023-04-24T00:55:10;10.10;99.90
6377;DHT22;3221;48.858;10.128;2023-04-24T00:57:38;10.00;99.90
6377;DHT22;3221;48.858;10.128;2023-04-24T01:00:06;10.10;99.90
6377;DHT22;3221;48.858;10.128;2023-04-24T01:02:39;10.30;99.90
6377;DHT22;3221;48.858;10.128;2023-04-24T01:05:08;10.30;99.90
6377;DHT22;3221;48.858;10.128;2023-04-24T01:07:35;10.20;99.90
6377;DHT22;3221;48.858;10.128;2023-04-24T01:10:03;10.20;99.90
6377;DHT22;3221;48.858;10.128;2023-04-24T01:12:30;10.30;99.90
6377;DHT22;3221;48.858;10.128;2023-04-24T01:14:57;10.30;99.90
6377;DHT22;3221;48.858;10.128;2023-04-24T01:17:24;10.30;99.90
6377;DHT22;3221;48.858;10.128;2023-04-24T01:19:53;10.20;99.90
6377;DHT22;3221;48.858;10.128;2023-04-24T01:22:20;10.10;99.90
6377;DHT22;3221;48.858;10.128;2023-04-24T01:24:47;10.10;99.90
6377;DHT22;3221;48.858;10.128;2023-04-24T01:27:15;10.20;99.90
6377;DHT22;3221;48.858;10.128;2023-04-24T01:29:44;10.20;99.90
6377;DHT22;3221;48.858;10.128;2023-04-24T01:32:11;10.10;99.90
6377;DHT22;3221;48.858;10.128;2023-04-24T01:34:40;10.10;99.90
6377;DHT22;3221;48.858;10.128;2023-04-24T01:37:07;10.10;99.90
6377;DHT22;3221;48.858;10.128;2023-04-24T01:39:34;10.20;99.90
6377;DHT22;3221;48.858;10.128;2023-04-24T01:42:01;10.10;99.90
6377;DHT22;3221;48.858;10.128;2023-04-24T01:44:33;10.10;99.90
6377;DHT22;3221;48.858;10.128;2023-04-24T01:47:01;9.90;99.90
6377;DHT22;3221;48.858;10.128;2023-04-24T01:49:29;10.10;99.90
6377;DHT22;3221;48.858;10.128;2023-04-24T01:51:56;10.10;99.90
6377;DHT22;3221;48.858;10.128;2023-04-24T01:54:23;10.10;99.90
6377;DHT22;3221;48.858;10.128;2023-04-24T01:56:50;10.20;99.90
6377;DHT22;3221;48.858;10.128;2023-04-24T01:59:17;9.90;99.90
6377;DHT22;3221;48.858;10.128;2023-04-24T02:01:45;10.00;99.90
6377;DHT22;3221;48.858;10.128;2023-04-24T02:04:12;10.00;99.90
6377;DHT22;3221;48.858;10.128;2023-04-24T02:06:39;10.00;99.90
6377;DHT22;3221;48.858;10.128;2023-04-24T02:09:06;9.90;99.90
6377;DHT22;3221;48.858;10.128;2023-04-24T02:11:33;9.80;99.90
6377;DHT22;3221;48.858;10.128;2023-04-24T02:14:00;9.80;99.90
6377;DHT22;3221;48.858;10.128;2023-04-24T02:16:28;9.80;99.90
6377;DHT22;3221;48.858;10.128;2023-04-24T02:18:59;9.80;99.90
6377;DHT22;3221;48.858;10.128;2023-04-24T02:21:26;9.80;99.90
6377;DHT22;3221;48.858;10.128;2023-04-24T02:23:54;9.70;99.90
6377;DHT22;3221;48.858;10.128;2023-04-24T02:26:21;9.80;99.90
6377;DHT22;3221;48.858;10.128;2023-04-24T02:28:51;9.80;99.90
6377;DHT22;3221;48.858;10.128;2023-04-24T02:31:20;9.80;99.90
6377;DHT22;3221;48.858;10.128;2023-04-24T02:33:47;10.00;99.90
6377;DHT22;3221;48.858;10.128;2023-04-24T02:36:14;9.80;99.90
6377;DHT22;3221;48.858;10.128;2023-04-24T02:38:41;9.80;99.90
6377;DHT22;3221;48.858;10.128;2023-04-24T02:41:08;9.90;99.90
6377;DHT22;3221;48.858;10.128;2023-04-24T02:43:34;9.90;99.90
6377;DHT22;3221;48.858;10.128;2023-04-24T02:46:02;10.00;99.90
6377;DHT22;3221;48.858;10.128;2023-04-24T02:48:29;10.10;99.90
6377;DHT22;3221;48.858;10.128;2023-04-24T02:50:56;9.90;99.90
6377;DHT22;3221;48.858;10.128;2023-04-24T02:53:24;9.90;99.90
6377;DHT22;3221;48.858;10.128;2023-04-24T02:55:51;10.00;99.90
6377;DHT22;3221;48.858;10.128;2023-04-24T02:58:18;10.00;99.90
6377;DHT22;3221;48.858;10.128;2023-04-24T03:00:46;10.00;99.90
6377;DHT22;3221;48.858;10.128;2023-04-24T03:03:14;10.00;99.90
6377;DHT22;3221;48.858;10.128;2023-04-24T03:05:42;10.00;99.90
6377;DHT22;3221;48.858;10.128;2023-04-24T03:08:09;10.00;99.90
6377;DHT22;3221;48.858;10.128;2023-04-24T03:10:37;10.00;99.90
6377;DHT22;3221;48.858;10.128;2023-04-24T03:13:03;10.00;99.90
6377;DHT22;3221;48.858;10.128;2023-04-24T03:15:31;10.00;99.90
6377;DHT22;3221;48.858;10.128;2023-04-24T03:17:58;10.00;99.90
6377;DHT22;3221;48.858;10.128;2023-04-24T03:20:25;10.00;99.90
6377;DHT22;3221;48.858;10.128;2023-04-24T03:22:54;10.00;99.90
6377;DHT22;3221;48.858;10.128;2023-04-24T03:25:21;10.00;99.90
6377;DHT22;3221;48.858;10.128;2023-04-24T03:27:48;9.90;99.90
6377;DHT22;3221;48.858;10.128;2023-04-24T03:30:47;9.90;99.90
6377;DHT22;3221;48.858;10.128;2023-04-24T03:33:15;9.90;99.90
6377;DHT22;3221;48.858;10.128;2023-04-24T03:35:53;9.90;99.90
6377;DHT22;3221;48.858;10.128;2023-04-24T03:38:21;9.80;99.90
6377;DHT22;3221;48.858;10.128;2023-04-24T03:40:55;9.90;99.90
6377;DHT22;3221;48.858;10.128;2023-04-24T03:43:43;9.90;99.90
6377;DHT22;3221;48.858;10.128;2023-04-24T03:46:10;9.80;99.90
6377;DHT22;3221;48.858;10.128;2023-04-24T03:48:43;10.00;99.90
6377;DHT22;3221;48.858;10.128;2023-04-24T03:51:10;9.90;99.90
6377;DHT22;3221;48.858;10.128;2023-04-24T03:53:40;9.90;99.90
6377;DHT22;3221;48.858;10.128;2023-04-24T03:56:09;9.80;99.90
6377;DHT22;3221;48.858;10.128;2023-04-24T03:58:36;9.90;99.90
6377;DHT22;3221;48.858;10.128;2023-04-24T04:01:04;9.80;99.90
6377;DHT22;3221;48.858;10.128;2023-04-24T04:03:38;9.80;99.90
6377;DHT22;3221;48.858;10.128;2023-04-24T04:06:06;9.80;99.90
6377;DHT22;3221;48.858;10.128;2023-04-24T04:08:33;9.80;99.90
6377;DHT22;3221;48.858;10.128;2023-04-24T04:11:00;9.70;99.90
6377;DHT22;3221;48.858;10.128;2023-04-24T04:13:30;9.80;99.90
6377;DHT22;3221;48.858;10.128;2023-04-24T04:15:57;9.70;99.90
6377;DHT22;3221;48.858;10.128;2023-04-24T04:18:24;9.60;99.90
6377;DHT22;3221;48.858;10.128;2023-04-24T04:20:51;9.70;99.90
6377;DHT22;3221;48.858;10.128;2023-04-24T04:23:18;9.70;99.90
6377;DHT22;3221;48.858;10.128;2023-04-24T04:26:03;9.60;99.90
6377;DHT22;3221;48.858;10.128;2023-04-24T04:28:44;9.60;99.90
6377;DHT22;3221;48.858;10.128;2023-04-24T04:31:12;9.70;99.90
6377;DHT22;3221;48.858;10.128;2023-04-24T04:33:39;9.60;99.90
6377;DHT22;3221;48.858;10.128;2023-04-24T04:36:08;9.60;99.90
6377;DHT22;3221;48.858;10.128;2023-04-24T04:38:39;9.70;99.90
6377;DHT22;3221;48.858;10.128;2023-04-24T04:41:20;9.70;99.90
6377;DHT22;3221;48.858;10.128;2023-04-24T04:43:47;9.80;99.90
6377;DHT22;3221;48.858;10.128;2023-04-24T04:46:15;9.70;99.90
6377;DHT22;3221;48.858;10.128;2023-04-24T04:48:49;9.80;99.90
6377;DHT22;3221;48.858;10.128;2023-04-24T04:51:16;9.80;99.90
6377;DHT22;3221;48.858;10.128;2023-04-24T04:53:43;9.90;99.90
6377;DHT22;3221;48.858;10.128;2023-04-24T04:56:11;9.90;99.90
6377;DHT22;3221;48.858;10.128;2023-04-24T04:58:44;9.90;99.90
6377;DHT22;3221;48.858;10.128;2023-04-24T05:01:14;9.80;99.90
6377;DHT22;3221;48.858;10.128;2023-04-24T05:03:44;9.80;99.90
6377;DHT22;3221;48.858;10.128;2023-04-24T05:06:15;9.80;99.90
6377;DHT22;3221;48.858;10.128;2023-04-24T05:08:43;9.90;99.90
6377;DHT22;3221;48.858;10.128;2023-04-24T05:11:30;9.70;99.90
6377;DHT22;3221;48.858;10.128;2023-04-24T05:13:59;9.70;99.90
6377;DHT22;3221;48.858;10.128;2023-04-24T05:16:37;9.70;99.90
6377;DHT22;3221;48.858;10.128;2023-04-24T05:19:06;9.70;99.90
6377;DHT22;3221;48.858;10.128;2023-04-24T05:21:37;9.70;99.90
6377;DHT22;3221;48.858;10.128;2023-04-24T05:24:06;9.70;99.90
6377;DHT22;3221;48.858;10.128;2023-04-24T05:27:00;9.70;99.90
6377;DHT22;3221;48.858;10.128;2023-04-24T05:29:34;9.60;99.90
6377;DHT22;3221;48.858;10.128;2023-04-24T05:32:02;9.60;99.90
6377;DHT22;3221;48.858;10.128;2023-04-24T05:34:31;9.60;99.90
6377;DHT22;3221;48.858;10.128;2023-04-24T05:36:58;9.60;99.90
6377;DHT22;3221;48.858;10.128;2023-04-24T05:39:25;9.50;99.90
6377;DHT22;3221;48.858;10.128;2023-04-24T05:41:53;9.40;99.90
6377;DHT22;3221;48.858;10.128;2023-04-24T05:44:20;9.50;99.90
6377;DHT22;3221;48.858;10.128;2023-04-24T05:46:47;9.60;99.90
6377;DHT22;3221;48.858;10.128;2023-04-24T05:49:15;9.70;99.90
6377;DHT22;3221;48.858;10.128;2023-04-24T05:51:44;9.70;99.90
6377;DHT22;3221;48.858;10.128;2023-04-24T05:54:12;9.60;99.90
6377;DHT22;3221;48.858;10.128;2023-04-24T05:56:40;9.50;99.90
6377;DHT22;3221;48.858;10.128;2023-04-24T05:59:10;9.30;99.90
6377;DHT22;3221;48.858;10.128;2023-04-24T06:01:37;9.50;99.90
6377;DHT22;3221;48.858;10.128;2023-04-24T06:04:11;9.30;99.90
6377;DHT22;3221;48.858;10.128;2023-04-24T06:06:40;9.40;99.90
6377;DHT22;3221;48.858;10.128;2023-04-24T06:09:08;9.40;99.90
6377;DHT22;3221;48.858;10.128;2023-04-24T06:11:35;9.40;99.90
6377;DHT22;3221;48.858;10.128;2023-04-24T06:14:03;9.30;99.90
6377;DHT22;3221;48.858;10.128;2023-04-24T06:16:50;9.30;99.90
6377;DHT22;3221;48.858;10.128;2023-04-24T06:19:30;9.30;99.90
6377;DHT22;3221;48.858;10.128;2023-04-24T06:21:57;9.30;99.90
6377;DHT22;3221;48.858;10.128;2023-04-24T06:24:27;9.20;99.90
6377;DHT22;3221;48.858;10.128;2023-04-24T06:26:55;9.20;99.90
6377;DHT22;3221;48.858;10.128;2023-04-24T06:29:23;9.20;99.90
6377;DHT22;3221;48.858;10.128;2023-04-24T06:31:50;9.20;99.90
6377;DHT22;3221;48.858;10.128;2023-04-24T06:34:17;9.30;99.90
6377;DHT22;3221;48.858;10.128;2023-04-24T06:36:44;9.30;99.90
6377;DHT22;3221;48.858;10.128;2023-04-24T06:39:11;9.30;99.90
6377;DHT22;3221;48.858;10.128;2023-04-24T06:41:38;9.50;99.90
6377;DHT22;3221;48.858;10.128;2023-04-24T06:44:08;9.20;99.90
6377;DHT22;3221;48.858;10.128;2023-04-24T06:46:35;9.30;99.90
6377;DHT22;3221;48.858;10.128;2023-04-24T06:49:03;9.30;99.90
6377;DHT22;3221;48.858;10.128;2023-04-24T06:51:30;9.40;99.90
6377;DHT22;3221;48.858;10.128;2023-04-24T06:53:59;9.30;99.90
6377;DHT22;3221;48.858;10.128;2023-04-24T06:56:26;9.20;99.90
6377;DHT22;3221;48.858;10.128;2023-04-24T06:58:53;9.40;99.90
6377;DHT22;3221;48.858;10.128;2023-04-24T07:01:20;9.30;99.90
6377;DHT22;3221;48.858;10.128;2023-04-24T07:03:47;9.30;99.90
6377;DHT22;3221;48.858;10.128;2023-04-24T07:06:14;9.20;99.90
6377;DHT22;3221;48.858;10.128;2023-04-24T07:08:43;9.40;99.90
6377;DHT22;3221;48.858;10.128;2023-04-24T07:11:10;9.40;99.90
6377;DHT22;3221;48.858;10.128;2023-04-24T07:13:37;9.40;99.90
6377;DHT22;3221;48.858;10.128;2023-04-24T07:16:08;9.30;99.90
6377;DHT22;3221;48.858;10.128;2023-04-24T07:18:36;9.50;99.90
6377;DHT22;3221;48.858;10.128;2023-04-24T07:21:04;9.40;99.90
6377;DHT22;3221;48.858;10.128;2023-04-24T07:23:31;9.40;99.90
6377;DHT22;3221;48.858;10.128;2023-04-24T07:25:58;9.50;99.90
6377;DHT22;3221;48.858;10.128;2023-04-24T07:28:24;9.40;99.90
6377;DHT22;3221;48.858;10.128;2023-04-24T07:30:52;9.50;99.90
6377;DHT22;3221;48.858;10.128;2023-04-24T07:33:20;9.40;99.90
6377;DHT22;3221;48.858;10.128;2023-04-24T07:35:48;9.50;99.90
6377;DHT22;3221;48.858;10.128;2023-04-24T07:38:15;9.40;99.90
6377;DHT22;3221;48.858;10.128;2023-04-24T07:40:41;9.50;99.90
6377;DHT22;3221;48.858;10.128;2023-04-24T07:43:13;9.50;99.90
6377;DHT22;3221;48.858;10.128;2023-04-24T07:45:40;9.50;99.90
6377;DHT22;3221;48.858;10.128;2023-04-24T07:48:08;9.60;99.90
6377;DHT22;3221;48.858;10.128;2023-04-24T07:50:35;9.60;99.90
6377;DHT22;3221;48.858;10.128;2023-04-24T07:53:03;9.70;99.90
6377;DHT22;3221;48.858;10.128;2023-04-24T07:55:30;9.70;99.90
6377;DHT22;3221;48.858;10.128;2023-04-24T07:57:57;9.80;99.90
6377;DHT22;3221;48.858;10.128;2023-04-24T08:00:23;9.80;99.90
6377;DHT22;3221;48.858;10.128;2023-04-24T08:02:50;9.90;99.90
6377;DHT22;3221;48.858;10.128;2023-04-24T08:05:17;9.80;99.90
6377;DHT22;3221;48.858;10.128;2023-04-24T08:07:45;9.80;99.90
6377;DHT22;3221;48.858;10.128;2023-04-24T08:10:15;9.80;99.90
6377;DHT22;3221;48.858;10.128;2023-04-24T08:12:42;9.80;99.90
6377;DHT22;3221;48.858;10.128;2023-04-24T08:15:09;9.80;99.90
6377;DHT22;3221;48.858;10.128;2023-04-24T08:17:36;9.80;99.90
6377;DHT22;3221;48.858;10.128;2023-04-24T08:20:04;9.80;99.90
6377;DHT22;3221;48.858;10.128;2023-04-24T08:22:32;9.80;99.90
6377;DHT22;3221;48.858;10.128;2023-04-24T08:25:00;9.80;99.90
6377;DHT22;3221;48.858;10.128;2023-04-24T08:27:27;9.90;99.90
6377;DHT22;3221;48.858;10.128;2023-04-24T08:29:54;9.90;99.90
6377;DHT22;3221;48.858;10.128;2023-04-24T08:32:21;9.90;99.90
6377;DHT22;3221;48.858;10.128;2023-04-24T08:34:48;9.90;99.90
6377;DHT22;3221;48.858;10.128;2023-04-24T08:37:15;10.00;99.90
6377;DHT22;3221;48.858;10.128;2023-04-24T08:39:42;9.90;99.90
6377;DHT22;3221;48.858;10.128;2023-04-24T08:42:11;9.90;99.90
6377;DHT22;3221;48.858;10.128;2023-04-24T08:44:39;9.90;99.90
6377;DHT22;3221;48.858;10.128;2023-04-24T08:47:07;10.00;99.90
6377;DHT22;3221;48.858;10.128;2023-04-24T08:49:36;9.90;99.90
6377;DHT22;3221;48.858;10.128;2023-04-24T08:52:03;9.90;99.90
6377;DHT22;3221;48.858;10.128;2023-04-24T08:54:33;10.00;99.90
6377;DHT22;3221;48.858;10.128;2023-04-24T08:57:01;9.90;99.90
6377;DHT22;3221;48.858;10.128;2023-04-24T08:59:31;9.80;99.90
6377;DHT22;3221;48.858;10.128;2023-04-24T09:02:00;9.80;99.90
6377;DHT22;3221;48.858;10.128;2023-04-24T09:04:29;9.70;99.90
6377;DHT22;3221;48.858;10.128;2023-04-24T09:06:58;9.80;99.90
6377;DHT22;3221;48.858;10.128;2023-04-24T09:09:25;9.80;99.90
6377;DHT22;3221;48.858;10.128;2023-04-24T09:11:53;9.90;99.90
6377;DHT22;3221;48.858;10.128;2023-04-24T09:14:23;9.80;99.90
6377;DHT22;3221;48.858;10.128;2023-04-24T09:16:50;9.80;99.90
6377;DHT22;3221;48.858;10.128;2023-04-24T09:19:18;9.90;99.90
6377;DHT22;3221;48.858;10.128;2023-04-24T09:21:48;9.90;99.90
6377;DHT22;3221;48.858;10.128;2023-04-24T09:24:16;9.90;99.90
6377;DHT22;3221;48.858;10.128;2023-04-24T09:26:55;9.80;99.90
6377;DHT22;3221;48.858;10.128;2023-04-24T09:29:24;9.80;99.90
6377;DHT22;3221;48.858;10.128;2023-04-24T09:31:51;9.70;99.90
6377;DHT22;3221;48.858;10.128;2023-04-24T09:34:26;9.80;99.90
6377;DHT22;3221;48.858;10.128;2023-04-24T09:36:54;9.80;99.90
6377;DHT22;3221;48.858;10.128;2023-04-24T09:39:21;9.80;99.90
6377;DHT22;3221;48.858;10.128;2023-04-24T09:41:49;9.80;99.90
6377;DHT22;3221;48.858;10.128;2023-04-24T09:44:18;9.80;99.90
6377;DHT22;3221;48.858;10.128;2023-04-24T09:46:55;9.80;99.90
6377;DHT22;3221;48.858;10.128;2023-04-24T09:51:51;9.80;99.90
6377;DHT22;3221;48.858;10.128;2023-04-24T09:54:20;9.80;99.90
6377;DHT22;3221;48.858;10.128;2023-04-24T09:56:50;9.80;99.90
6377;DHT22;3221;48.858;10.128;2023-04-24T09:59:19;9.90;99.90
6377;DHT22;3221;48.858;10.128;2023-04-24T10:01:46;10.00;99.90
6377;DHT22;3221;48.858;10.128;2023-04-24T10:04:20;10.00;99.90
6377;DHT22;3221;48.858;10.128;2023-04-24T10:06:48;10.10;99.90
6377;DHT22;3221;48.858;10.128;2023-04-24T10:09:17;10.10;99.90
6377;DHT22;3221;48.858;10.128;2023-04-24T10:11:46;10.10;99.90
6377;DHT22;3221;48.858;10.128;2023-04-24T10:14:16;10.10;99.90
6377;DHT22;3221;48.858;10.128;2023-04-24T10:16:44;10.20;99.90
6377;DHT22;3221;48.858;10.128;2023-04-24T10:19:11;10.00;99.90
6377;DHT22;3221;48.858;10.128;2023-04-24T10:21:41;10.00;99.90
6377;DHT22;3221;48.858;10.128;2023-04-24T10:24:18;10.00;99.90
6377;DHT22;3221;48.858;10.128;2023-04-24T10:26:47;10.00;99.90
6377;DHT22;3221;48.858;10.128;2023-04-24T10:29:18;9.90;99.90
6377;DHT22;3221;48.858;10.128;2023-04-24T10:31:45;9.90;99.90
6377;DHT22;3221;48.858;10.128;2023-04-24T10:34:15;9.90;99.90
6377;DHT22;3221;48.858;10.128;2023-04-24T10:37:02;9.90;99.90
6377;DHT22;3221;48.858;10.128;2023-04-24T10:39:30;10.00;99.90
6377;DHT22;3221;48.858;10.128;2023-04-24T10:42:00;9.90;99.90
6377;DHT22;3221;48.858;10.128;2023-04-24T10:44:36;10.00;99.90
6377;DHT22;3221;48.858;10.128;2023-04-24T10:47:03;9.80;99.90
6377;DHT22;3221;48.858;10.128;2023-04-24T10:49:31;9.80;99.90
6377;DHT22;3221;48.858;10.128;2023-04-24T10:52:03;9.80;99.90
6377;DHT22;3221;48.858;10.128;2023-04-24T10:54:45;9.80;99.90
6377;DHT22;3221;48.858;10.128;2023-04-24T10:59:51;9.80;99.90
6377;DHT22;3221;48.858;10.128;2023-04-24T11:02:20;10.10;99.90
6377;DHT22;3221;48.858;10.128;2023-04-24T11:05:05;9.90;99.90
6377;DHT22;3221;48.858;10.128;2023-04-24T11:10:46;10.10;99.90
6377;DHT22;3221;48.858;10.128;2023-04-24T11:13:17;10.10;99.90
6377;DHT22;3221;48.858;10.128;2023-04-24T11:15:44;10.00;99.90
6377;DHT22;3221;48.858;10.128;2023-04-24T11:18:14;10.10;99.90
6377;DHT22;3221;48.858;10.128;2023-04-24T11:20:44;10.20;99.90
6377;DHT22;3221;48.858;10.128;2023-04-24T11:23:12;10.00;99.90
6377;DHT22;3221;48.858;10.128;2023-04-24T11:25:39;10.00;99.90
6377;DHT22;3221;48.858;10.128;2023-04-24T11:28:14;10.00;99.90
6377;DHT22;3221;48.858;10.128;2023-04-24T11:30:42;10.00;99.90
6377;DHT22;3221;48.858;10.128;2023-04-24T11:33:09;9.90;99.90
6377;DHT22;3221;48.858;10.128;2023-04-24T11:35:40;10.00;99.90
6377;DHT22;3221;48.858;10.128;2023-04-24T11:38:07;10.10;99.90
6377;DHT22;3221;48.858;10.128;2023-04-24T11:40:50;10.10;99.90
6377;DHT22;3221;48.858;10.128;2023-04-24T11:43:17;10.10;99.90
6377;DHT22;3221;48.858;10.128;2023-04-24T11:45:49;10.20;99.90
6377;DHT22;3221;48.858;10.128;2023-04-24T11:48:20;10.10;99.90
6377;DHT22;3221;48.858;10.128;2023-04-24T11:50:49;10.10;99.90
6377;DHT22;3221;48.858;10.128;2023-04-24T11:53:19;10.20;99.90
6377;DHT22;3221;48.858;10.128;2023-04-24T11:55:48;10.10;99.90
6377;DHT22;3221;48.858;10.128;2023-04-24T11:58:14;10.10;99.90
6377;DHT22;3221;48.858;10.128;2023-04-24T12:00:41;10.10;99.90
6377;DHT22;3221;48.858;10.128;2023-04-24T12:03:10;10.10;99.90
6377;DHT22;3221;48.858;10.128;2023-04-24T12:05:39;10.10;99.90
6377;DHT22;3221;48.858;10.128;2023-04-24T12:08:06;10.00;99.90
6377;DHT22;3221;48.858;10.128;2023-04-24T12:10:34;10.10;99.90
6377;DHT22;3221;48.858;10.128;2023-04-24T12:13:01;10.00;99.90
6377;DHT22;3221;48.858;10.128;2023-04-24T12:15:29;10.10;99.90
6377;DHT22;3221;48.858;10.128;2023-04-24T12:17:56;10.10;99.90
6377;DHT22;3221;48.858;10.128;2023-04-24T12:20:28;10.10;99.90
6377;DHT22;3221;48.858;10.128;2023-04-24T12:22:57;10.10;99.90
6377;DHT22;3221;48.858;10.128;2023-04-24T12:25:29;10.10;99.90
6377;DHT22;3221;48.858;10.128;2023-04-24T12:30:31;10.20;99.90
6377;DHT22;3221;48.858;10.128;2023-04-24T12:32:59;10.20;99.90
6377;DHT22;3221;48.858;10.128;2023-04-24T12:35:28;10.30;99.90
6377;DHT22;3221;48.858;10.128;2023-04-24T12:37:55;10.30;99.90
6377;DHT22;3221;48.858;10.128;2023-04-24T12:40:25;10.40;99.90
6377;DHT22;3221;48.858;10.128;2023-04-24T12:42:52;10.30;99.90
6377;DHT22;3221;48.858;10.128;2023-04-24T12:45:20;10.30;99.90
6377;DHT22;3221;48.858;10.128;2023-04-24T12:47:50;10.20;99.90
6377;DHT22;3221;48.858;10.128;2023-04-24T12:50:17;10.30;99.90
6377;DHT22;3221;48.858;10.128;2023-04-24T12:52:44;10.20;99.90
6377;DHT22;3221;48.858;10.128;2023-04-24T12:55:12;10.40;99.90
6377;DHT22;3221;48.858;10.128;2023-04-24T12:57:39;10.30;99.90
6377;DHT22;3221;48.858;10.128;2023-04-24T13:00:08;10.20;99.90
6377;DHT22;3221;48.858;10.128;2023-04-24T13:02:35;10.30;99.90
6377;DHT22;3221;48.858;10.128;2023-04-24T13:05:02;10.30;99.90
6377;DHT22;3221;48.858;10.128;2023-04-24T13:07:29;10.30;99.90
6377;DHT22;3221;48.858;10.128;2023-04-24T13:09:56;10.40;99.90
6377;DHT22;3221;48.858;10.128;2023-04-24T13:12:24;10.30;99.90
6377;DHT22;3221;48.858;10.128;2023-04-24T13:14:52;10.50;99.90
6377;DHT22;3221;48.858;10.128;2023-04-24T13:17:20;10.50;99.90
6377;DHT22;3221;48.858;10.128;2023-04-24T13:19:50;10.30;99.90
6377;DHT22;3221;48.858;10.128;2023-04-24T13:22:18;10.20;99.90
6377;DHT22;3221;48.858;10.128;2023-04-24T13:24:48;10.20;99.90
6377;DHT22;3221;48.858;10.128;2023-04-24T13:27:18;10.20;99.90
6377;DHT22;3221;48.858;10.128;2023-04-24T13:29:45;10.10;99.90
6377;DHT22;3221;48.858;10.128;2023-04-24T13:32:12;10.10;99.90
6377;DHT22;3221;48.858;10.128;2023-04-24T13:34:39;10.10;99.90
6377;DHT22;3221;48.858;10.128;2023-04-24T13:37:06;10.10;99.90
6377;DHT22;3221;48.858;10.128;2023-04-24T13:39:34;10.10;99.90
6377;DHT22;3221;48.858;10.128;2023-04-24T13:42:02;10.10;99.90
6377;DHT22;3221;48.858;10.128;2023-04-24T13:44:31;10.10;99.90
6377;DHT22;3221;48.858;10.128;2023-04-24T13:46:58;10.10;99.90
6377;DHT22;3221;48.858;10.128;2023-04-24T13:49:25;10.10;99.90
6377;DHT22;3221;48.858;10.128;2023-04-24T13:51:54;10.10;99.90
6377;DHT22;3221;48.858;10.128;2023-04-24T13:54:21;10.10;99.90
6377;DHT22;3221;48.858;10.128;2023-04-24T13:56:51;10.10;99.90
6377;DHT22;3221;48.858;10.128;2023-04-24T13:59:19;10.10;99.90
6377;DHT22;3221;48.858;10.128;2023-04-24T14:01:47;10.10;99.90
6377;DHT22;3221;48.858;10.128;2023-04-24T14:04:14;10.10;99.90
6377;DHT22;3221;48.858;10.128;2023-04-24T14:06:42;10.00;99.90
6377;DHT22;3221;48.858;10.128;2023-04-24T14:09:09;10.20;99.90
6377;DHT22;3221;48.858;10.128;2023-04-24T14:11:36;10.00;99.90
6377;DHT22;3221;48.858;10.128;2023-04-24T14:14:03;10.00;99.90
6377;DHT22;3221;48.858;10.128;2023-04-24T14:16:31;10.00;99.90
6377;DHT22;3221;48.858;10.128;2023-04-24T14:18:58;9.90;99.90
6377;DHT22;3221;48.858;10.128;2023-04-24T14:21:25;10.10;99.90
6377;DHT22;3221;48.858;10.128;2023-04-24T14:23:52;10.00;99.90
6377;DHT22;3221;48.858;10.128;2023-04-24T14:26:19;9.90;99.90
6377;DHT22;3221;48.858;10.128;2023-04-24T14:28:46;9.90;99.90
6377;DHT22;3221;48.858;10.128;2023-04-24T14:31:13;9.90;99.90
6377;DHT22;3221;48.858;10.128;2023-04-24T14:33:40;10.00;99.90
6377;DHT22;3221;48.858;10.128;2023-04-24T14:36:07;9.90;99.90
6377;DHT22;3221;48.858;10.128;2023-04-24T14:38:34;9.80;99.90
6377;DHT22;3221;48.858;10.128;2023-04-24T14:41:01;9.70;99.90
6377;DHT22;3221;48.858;10.128;2023-04-24T14:43:38;9.70;99.90
6377;DHT22;3221;48.858;10.128;2023-04-24T14:46:05;9.70;99.90
6377;DHT22;3221;48.858;10.128;2023-04-24T14:48:32;9.80;99.90
6377;DHT22;3221;48.858;10.128;2023-04-24T14:50:59;9.80;99.90
6377;DHT22;3221;48.858;10.128;2023-04-24T14:53:26;9.80;99.90
6377;DHT22;3221;48.858;10.128;2023-04-24T14:55:53;9.80;99.90
6377;DHT22;3221;48.858;10.128;2023-04-24T14:58:20;9.90;99.90
6377;DHT22;3221;48.858;10.128;2023-04-24T15:00:48;9.90;99.90
6377;DHT22;3221;48.858;10.128;2023-04-24T15:03:19;9.90;99.90
6377;DHT22;3221;48.858;10.128;2023-04-24T15:05:48;9.80;99.90
6377;DHT22;3221;48.858;10.128;2023-04-24T15:08:15;9.70;99.90
6377;DHT22;3221;48.858;10.128;2023-04-24T15:10:42;9.70;99.90
6377;DHT22;3221;48.858;10.128;2023-04-24T15:13:09;9.80;99.90
6377;DHT22;3221;48.858;10.128;2023-04-24T15:15:36;9.90;99.90
6377;DHT22;3221;48.858;10.128;2023-04-24T15:18:04;9.90;99.90
6377;DHT22;3221;48.858;10.128;2023-04-24T15:20:32;9.70;99.90
6377;DHT22;3221;48.858;10.128;2023-04-24T15:22:59;9.60;99.90
6377;DHT22;3221;48.858;10.128;2023-04-24T15:25:28;9.60;99.90
6377;DHT22;3221;48.858;10.128;2023-04-24T15:27:55;9.40;99.90
6377;DHT22;3221;48.858;10.128;2023-04-24T15:30:22;9.60;99.90
6377;DHT22;3221;48.858;10.128;2023-04-24T15:32:49;9.50;99.90
6377;DHT22;3221;48.858;10.128;2023-04-24T15:35:16;9.40;99.90
6377;DHT22;3221;48.858;10.128;2023-04-24T15:37:43;9.40;99.90
6377;DHT22;3221;48.858;10.128;2023-04-24T15:40:11;9.40;99.90
6377;DHT22;3221;48.858;10.128;2023-04-24T15:42:40;9.40;99.90
6377;DHT22;3221;48.858;10.128;2023-04-24T15:45:08;9.40;99.90
6377;DHT22;3221;48.858;10.128;2023-04-24T15:47:35;9.40;99.90
6377;DHT22;3221;48.858;10.128;2023-04-24T15:50:03;9.40;99.90
6377;DHT22;3221;48.858;10.128;2023-04-24T15:52:30;9.40;99.90
6377;DHT22;3221;48.858;10.128;2023-04-24T15:54:57;9.30;99.90
6377;DHT22;3221;48.858;10.128;2023-04-24T15:57:24;9.40;99.90
6377;DHT22;3221;48.858;10.128;2023-04-24T15:59:51;9.60;99.90
6377;DHT22;3221;48.858;10.128;2023-04-24T16:02:18;9.50;99.90
6377;DHT22;3221;48.858;10.128;2023-04-24T16:04:48;9.50;99.90
6377;DHT22;3221;48.858;10.128;2023-04-24T16:07:16;9.40;99.90
6377;DHT22;3221;48.858;10.128;2023-04-24T16:09:46;9.50;99.90
6377;DHT22;3221;48.858;10.128;2023-04-24T16:12:13;9.60;99.90
6377;DHT22;3221;48.858;10.128;2023-04-24T16:14:41;9.70;99.90